createdAt,value
2018-03-16T00:00:27.453Z,23.97
2018-03-16T00:02:55.163Z,22.00
2018-03-16T00:05:22.990Z,24.67
2018-03-16T00:07:50.791Z,24.60
2018-03-16T00:10:18.658Z,23.17
2018-03-16T00:12:46.362Z,21.03
2018-03-16T00:15:14.085Z,20.67
2018-03-16T00:17:41.769Z,19.97
2018-03-16T00:20:09.379Z,21.20
2018-03-16T00:22:38.920Z,21.17
2018-03-16T00:25:06.560Z,22.93
2018-03-16T00:27:34.212Z,29.30
2018-03-16T00:30:01.823Z,25.67
2018-03-16T00:32:29.472Z,27.47
2018-03-16T00:34:57.088Z,26.37
2018-03-16T00:37:24.893Z,27.17
2018-03-16T00:39:52.648Z,31.17
2018-03-16T00:42:20.517Z,30.60
2018-03-16T00:44:48.486Z,31.37
2018-03-16T00:47:16.452Z,25.80
2018-03-16T00:49:44.109Z,24.33
2018-03-16T00:52:11.825Z,24.20
2018-03-16T00:54:39.544Z,24.50
2018-03-16T00:57:07.511Z,24.90
2018-03-16T00:59:35.221Z,24.17
2018-03-16T01:02:03.039Z,24.07
2018-03-16T01:04:30.757Z,24.37
2018-03-16T01:06:58.566Z,27.37
2018-03-16T01:09:26.176Z,26.97
2018-03-16T01:11:53.832Z,29.60
2018-03-16T01:14:21.656Z,29.10
2018-03-16T01:16:49.535Z,28.47
2018-03-16T01:19:17.232Z,26.27
2018-03-16T01:21:44.994Z,31.57
2018-03-16T01:24:12.916Z,28.83
2018-03-16T01:26:40.739Z,28.33
2018-03-16T01:29:08.553Z,26.90
2018-03-16T01:31:36.315Z,24.47
2018-03-16T01:34:04.030Z,24.60
2018-03-16T01:36:31.778Z,25.00
2018-03-16T01:38:59.608Z,28.00
2018-03-16T01:41:27.549Z,28.00
2018-03-16T01:43:55.337Z,27.67
2018-03-16T01:46:23.166Z,29.93
2018-03-16T01:48:50.969Z,29.10
2018-03-16T01:51:18.700Z,30.30
2018-03-16T01:53:46.496Z,28.03
2018-03-16T01:56:14.370Z,29.60
2018-03-16T01:58:42.026Z,31.63
2018-03-16T02:01:09.891Z,30.30
2018-03-16T02:03:37.609Z,30.70
2018-03-16T02:06:05.523Z,29.37
2018-03-16T02:08:33.275Z,29.80
2018-03-16T02:11:00.996Z,29.40
2018-03-16T02:13:28.815Z,28.20
2018-03-16T02:15:56.681Z,28.90
2018-03-16T02:18:24.524Z,28.10
2018-03-16T02:20:52.416Z,29.37
2018-03-16T02:23:20.293Z,28.33
2018-03-16T02:25:48.148Z,31.30
2018-03-16T02:28:15.964Z,30.97
2018-03-16T02:30:43.826Z,33.53
2018-03-16T02:33:11.816Z,32.57
2018-03-16T02:35:39.511Z,30.07
2018-03-16T02:38:07.232Z,31.87
2018-03-16T02:40:35.065Z,28.13
2018-03-16T02:43:02.922Z,29.40
2018-03-16T02:45:30.564Z,30.50
2018-03-16T02:47:58.337Z,30.03
2018-03-16T02:50:25.999Z,30.47
2018-03-16T02:52:53.854Z,29.27
2018-03-16T02:55:21.589Z,32.23
2018-03-16T02:57:49.395Z,30.50
2018-03-16T03:00:17.101Z,30.37
2018-03-16T03:02:44.963Z,31.33
2018-03-16T03:05:12.676Z,31.53
2018-03-16T03:07:40.448Z,28.27
2018-03-16T03:10:08.214Z,27.43
2018-03-16T03:12:36.035Z,28.53
2018-03-16T03:15:03.946Z,27.10
2018-03-16T03:17:31.781Z,28.30
2018-03-16T03:19:59.576Z,28.17
2018-03-16T03:22:27.552Z,30.07
2018-03-16T03:24:55.322Z,29.07
2018-03-16T03:27:23.152Z,27.90
2018-03-16T03:29:50.900Z,26.00
2018-03-16T03:32:18.809Z,28.30
2018-03-16T03:34:46.462Z,26.53
2018-03-16T03:37:14.233Z,26.63
2018-03-16T03:39:41.968Z,27.10
2018-03-16T03:42:09.719Z,29.10
2018-03-16T03:44:37.476Z,27.03
2018-03-16T03:47:05.286Z,27.73
2018-03-16T03:49:33.000Z,27.27
2018-03-16T03:52:00.719Z,26.03
2018-03-16T03:54:28.439Z,26.30
2018-03-16T03:56:56.250Z,27.37
2018-03-16T03:59:23.964Z,27.97
2018-03-16T04:01:51.774Z,25.70
2018-03-16T04:04:19.750Z,24.60
2018-03-16T04:06:47.562Z,25.90
2018-03-16T04:09:15.375Z,26.80
2018-03-16T04:11:43.222Z,23.23
2018-03-16T04:14:11.106Z,23.83
2018-03-16T04:16:38.953Z,25.00
2018-03-16T04:19:06.737Z,26.97
2018-03-16T04:21:34.707Z,27.30
2018-03-16T04:24:02.430Z,29.13
2018-03-16T04:26:30.235Z,29.23
2018-03-16T04:28:57.966Z,30.93
2018-03-16T04:31:25.725Z,29.37
2018-03-16T04:33:53.422Z,29.23
2018-03-16T04:36:21.134Z,27.80
2018-03-16T04:38:48.899Z,27.57
2018-03-16T04:41:16.821Z,27.73
2018-03-16T04:43:44.640Z,25.27
2018-03-16T04:46:12.458Z,25.60
2018-03-16T04:48:40.315Z,25.23
2018-03-16T04:51:08.032Z,28.83
2018-03-16T04:53:35.802Z,28.10
2018-03-16T04:56:03.611Z,27.80
2018-03-16T04:58:31.477Z,30.50
2018-03-16T05:00:59.243Z,27.80
2018-03-16T05:03:26.906Z,27.53
2018-03-16T05:05:54.517Z,30.60
2018-03-16T05:08:22.177Z,31.30
2018-03-16T05:10:49.816Z,31.87
2018-03-16T05:13:17.481Z,29.77
2018-03-16T05:15:45.148Z,31.77
2018-03-16T05:18:12.981Z,30.47
2018-03-16T05:20:40.817Z,30.50
2018-03-16T05:23:08.505Z,28.43
2018-03-16T05:25:36.372Z,27.60
2018-03-16T05:28:04.239Z,28.30
2018-03-16T05:30:32.011Z,30.73
2018-03-16T05:32:59.981Z,29.80
2018-03-16T05:35:27.943Z,28.43
2018-03-16T05:37:55.918Z,29.90
2018-03-16T05:40:23.644Z,29.53
2018-03-16T05:42:51.644Z,31.20
2018-03-16T05:45:19.590Z,31.90
2018-03-16T05:47:47.582Z,28.43
2018-03-16T05:50:15.455Z,25.90
2018-03-16T05:52:43.262Z,26.20
2018-03-16T05:55:11.083Z,28.50
2018-03-16T05:57:38.945Z,26.93
2018-03-16T06:00:06.665Z,29.13
2018-03-16T06:02:34.476Z,28.20
2018-03-16T06:05:02.239Z,26.90
2018-03-16T06:07:30.187Z,25.90
2018-03-16T06:09:57.890Z,27.97
2018-03-16T06:12:25.734Z,25.03
2018-03-16T06:14:53.608Z,28.57
2018-03-16T06:17:21.471Z,28.30
2018-03-16T06:19:49.195Z,28.30
2018-03-16T06:22:17.009Z,25.83
2018-03-16T06:24:44.851Z,24.20
2018-03-16T06:27:12.631Z,26.10
2018-03-16T06:29:40.338Z,28.73
2018-03-16T06:32:08.163Z,29.80
2018-03-16T06:34:35.869Z,32.40
2018-03-16T06:37:03.583Z,31.83
2018-03-16T06:39:31.343Z,31.20
2018-03-16T06:41:59.069Z,31.67
2018-03-16T06:44:26.845Z,32.57
2018-03-16T06:46:54.641Z,31.57
2018-03-16T06:49:22.621Z,30.20
2018-03-16T06:51:50.304Z,27.20
2018-03-16T06:54:18.221Z,31.43
2018-03-16T06:56:46.005Z,29.23
2018-03-16T06:59:13.918Z,27.60
2018-03-16T07:01:41.597Z,25.97
2018-03-16T07:04:09.399Z,28.73
2018-03-16T07:06:37.164Z,27.83
2018-03-16T07:09:05.030Z,27.20
2018-03-16T07:11:32.887Z,24.30
2018-03-16T07:14:00.764Z,24.87
2018-03-16T07:16:28.480Z,25.03
2018-03-16T07:18:56.287Z,25.30
2018-03-16T07:21:24.133Z,26.00
2018-03-16T07:23:51.896Z,28.17
2018-03-16T07:26:19.567Z,27.40
2018-03-16T07:28:47.345Z,25.57
2018-03-16T07:31:15.168Z,26.60
2018-03-16T07:33:42.981Z,26.60
2018-03-16T07:36:10.702Z,28.40
2018-03-16T07:38:38.511Z,24.40
2018-03-16T07:41:06.133Z,25.40
2018-03-16T07:43:33.935Z,25.27
2018-03-16T07:46:03.544Z,23.57
2018-03-16T07:48:31.419Z,23.33
2018-03-16T07:50:59.276Z,22.73
2018-03-16T07:53:27.143Z,23.43
2018-03-16T07:55:54.909Z,23.33
2018-03-16T07:58:22.773Z,24.57
2018-03-16T08:00:50.537Z,24.37
2018-03-16T08:03:18.405Z,23.63
2018-03-16T08:05:46.125Z,22.67
2018-03-16T08:08:13.873Z,24.07
2018-03-16T08:10:41.697Z,23.37
2018-03-16T08:13:09.480Z,23.10
2018-03-16T08:15:37.327Z,22.97
2018-03-16T08:18:05.092Z,22.03
2018-03-16T08:20:32.798Z,20.60
2018-03-16T08:23:00.522Z,22.03
2018-03-16T08:25:28.181Z,21.73
2018-03-16T08:27:56.150Z,21.47
2018-03-16T08:30:24.015Z,20.90
2018-03-16T08:32:51.833Z,20.87
2018-03-16T08:35:19.651Z,22.07
2018-03-16T08:37:47.413Z,22.33
2018-03-16T08:40:15.267Z,22.60
2018-03-16T08:42:43.101Z,22.17
2018-03-16T08:45:10.761Z,20.57
2018-03-16T08:47:38.431Z,18.17
2018-03-16T08:50:06.316Z,17.10
2018-03-16T08:52:34.098Z,18.20
2018-03-16T08:55:02.272Z,17.13
2018-03-16T08:57:30.040Z,16.60
2018-03-16T08:59:58.012Z,17.37
2018-03-16T09:02:25.771Z,16.73
2018-03-16T09:04:53.717Z,16.20
2018-03-16T09:07:21.608Z,17.30
2018-03-16T09:09:49.380Z,15.70
2018-03-16T09:12:17.135Z,17.60
2018-03-16T09:14:45.130Z,15.90
2018-03-16T09:17:12.873Z,16.60
2018-03-16T09:19:40.761Z,17.27
2018-03-16T09:22:08.538Z,15.07
2018-03-16T09:24:36.367Z,13.87
2018-03-16T09:27:04.027Z,14.40
2018-03-16T09:29:31.857Z,14.87
2018-03-16T09:31:59.562Z,14.13
2018-03-16T09:34:27.371Z,13.53
2018-03-16T09:36:55.004Z,13.17
2018-03-16T09:39:22.681Z,12.70
2018-03-16T09:41:50.312Z,13.70
2018-03-16T09:44:18.072Z,12.27
2018-03-16T09:46:45.835Z,13.37
2018-03-16T09:49:13.809Z,12.80
2018-03-16T09:51:41.529Z,10.50
2018-03-16T09:54:09.527Z,12.17
2018-03-16T09:56:37.510Z,11.47
2018-03-16T09:59:05.342Z,11.20
2018-03-16T10:01:33.023Z,10.30
2018-03-16T10:04:00.870Z,11.53
2018-03-16T10:06:28.667Z,9.87
2018-03-16T10:08:56.534Z,10.00
2018-03-16T10:11:24.264Z,9.10
2018-03-16T10:13:52.163Z,9.13
2018-03-16T10:16:19.900Z,10.07
2018-03-16T10:18:47.588Z,8.00
2018-03-16T10:21:15.354Z,7.60
2018-03-16T10:23:43.110Z,6.47
2018-03-16T10:26:10.833Z,6.80
2018-03-16T10:28:38.759Z,7.30
2018-03-16T10:31:06.486Z,6.90
2018-03-16T10:33:34.283Z,6.73
2018-03-16T10:36:01.998Z,8.03
2018-03-16T10:38:29.823Z,8.20
2018-03-16T10:40:57.461Z,9.00
2018-03-16T10:43:25.247Z,8.00
2018-03-16T10:45:53.099Z,9.20
2018-03-16T10:48:20.863Z,7.30
2018-03-16T10:50:48.580Z,7.07
2018-03-16T10:53:16.293Z,8.50
2018-03-16T10:55:44.053Z,6.70
2018-03-16T10:58:12.051Z,8.70
2018-03-16T11:00:45.508Z,7.83
2018-03-16T11:03:15.174Z,9.77
2018-03-16T11:05:48.622Z,7.17
2018-03-16T11:08:21.920Z,7.67
2018-03-16T11:10:49.647Z,7.80
2018-03-16T11:13:17.452Z,6.60
2018-03-16T11:15:45.219Z,6.77
2018-03-16T11:18:13.084Z,6.50
2018-03-16T11:20:40.849Z,7.23
2018-03-16T11:23:08.521Z,8.27
2018-03-16T11:25:36.377Z,15.60
2018-03-16T11:28:04.139Z,6.67
2018-03-16T11:30:31.896Z,13.37
2018-03-16T11:32:59.668Z,7.20
2018-03-16T11:35:27.532Z,9.10
2018-03-16T11:37:55.255Z,7.30
2018-03-16T11:40:23.164Z,42.23
2018-03-16T11:42:50.790Z,8.37
2018-03-16T11:45:18.467Z,6.97
2018-03-16T11:47:46.099Z,5.20
2018-03-16T11:50:13.773Z,7.10
2018-03-16T11:52:41.394Z,5.17
2018-03-16T11:55:09.050Z,7.67
2018-03-16T11:57:36.720Z,5.33
2018-03-16T12:00:04.406Z,4.33
2018-03-16T12:02:32.020Z,4.17
2018-03-16T12:04:59.672Z,4.00
2018-03-16T12:07:27.276Z,4.00
2018-03-16T12:09:54.955Z,4.17
2018-03-16T12:12:22.565Z,4.30
2018-03-16T12:14:50.225Z,4.53
2018-03-16T12:17:17.839Z,4.10
2018-03-16T12:19:45.489Z,4.63
2018-03-16T12:22:13.099Z,3.83
2018-03-16T12:24:40.788Z,4.33
2018-03-16T12:27:08.397Z,4.87
2018-03-16T12:29:36.573Z,4.80
2018-03-16T12:32:04.370Z,4.50
2018-03-16T12:34:32.134Z,4.70
2018-03-16T12:36:59.821Z,3.63
2018-03-16T12:39:27.766Z,4.57
2018-03-16T12:41:55.493Z,3.47
2018-03-16T12:44:23.248Z,3.57
2018-03-16T12:46:51.057Z,4.20
2018-03-16T12:49:18.762Z,2.80
2018-03-16T12:51:46.691Z,1.80
2018-03-16T12:54:14.340Z,1.90
2018-03-16T12:56:42.148Z,2.00
2018-03-16T12:59:10.083Z,1.70
2018-03-16T13:01:37.848Z,1.70
2018-03-16T13:04:05.782Z,1.43
2018-03-16T13:06:33.389Z,1.60
2018-03-16T13:09:01.349Z,1.30
2018-03-16T13:11:29.023Z,1.80
2018-03-16T13:13:56.874Z,2.20
2018-03-16T13:16:24.640Z,1.90
2018-03-16T13:18:52.310Z,1.77
2018-03-16T13:21:20.521Z,1.60
2018-03-16T13:23:48.452Z,1.70
2018-03-16T13:26:16.310Z,1.70
2018-03-16T13:28:44.282Z,2.03
2018-03-16T13:31:12.117Z,1.37
2018-03-16T13:33:40.019Z,0.90
2018-03-16T13:36:07.984Z,0.60
2018-03-16T13:38:35.851Z,0.90
2018-03-16T13:41:03.667Z,0.70
2018-03-16T13:43:31.480Z,0.80
2018-03-16T13:45:59.251Z,0.67
2018-03-16T13:48:27.008Z,0.80
2018-03-16T13:50:54.654Z,0.73
2018-03-16T13:53:22.435Z,0.70
2018-03-16T13:55:50.427Z,0.77
2018-03-16T13:58:18.169Z,0.90
2018-03-16T14:00:45.832Z,0.67
2018-03-16T14:03:13.534Z,1.00
2018-03-16T14:05:41.349Z,1.10
2018-03-16T14:08:09.122Z,1.20
2018-03-16T14:10:36.990Z,1.17
2018-03-16T14:13:04.764Z,1.20
2018-03-16T14:15:32.520Z,1.40
2018-03-16T14:18:00.590Z,1.10
2018-03-16T14:20:28.399Z,1.40
2018-03-16T14:22:56.010Z,1.73
2018-03-16T14:25:23.650Z,1.60
2018-03-16T14:27:51.253Z,1.20
2018-03-16T14:30:18.925Z,1.07
2018-03-16T14:32:46.536Z,1.23
2018-03-16T14:35:14.413Z,1.33
2018-03-16T14:37:41.917Z,1.60
2018-03-16T14:40:09.579Z,1.00
2018-03-16T14:42:37.207Z,1.83
2018-03-16T14:45:04.880Z,1.40
2018-03-16T14:47:32.488Z,1.53
2018-03-16T14:50:00.149Z,1.20
2018-03-16T14:52:27.799Z,1.10
2018-03-16T14:54:55.474Z,1.30
2018-03-16T14:57:23.282Z,1.10
2018-03-16T14:59:51.233Z,0.67
2018-03-16T15:02:19.019Z,1.30
2018-03-16T15:04:46.850Z,0.70
2018-03-16T15:07:14.783Z,1.20
2018-03-16T15:09:42.625Z,0.90
2018-03-16T15:12:10.236Z,1.03
2018-03-16T15:14:38.049Z,0.80
2018-03-16T15:17:05.703Z,0.70
2018-03-16T15:19:33.450Z,1.10
2018-03-16T15:22:01.231Z,1.10
2018-03-16T15:24:29.098Z,1.00
2018-03-16T15:26:56.816Z,1.13
2018-03-16T15:29:24.631Z,1.00
2018-03-16T15:31:52.390Z,0.90
2018-03-16T15:34:20.257Z,1.50
2018-03-16T15:36:47.857Z,1.00
2018-03-16T15:39:15.672Z,1.00
2018-03-16T15:41:43.297Z,1.00
2018-03-16T15:44:10.956Z,1.10
2018-03-16T15:46:38.619Z,0.90
2018-03-16T15:49:06.278Z,0.90
2018-03-16T15:51:33.928Z,1.20
2018-03-16T15:54:01.540Z,1.30
2018-03-16T15:56:29.197Z,1.47
2018-03-16T15:58:56.819Z,1.20
2018-03-16T16:01:24.469Z,1.17
2018-03-16T16:03:52.109Z,1.70
2018-03-16T16:06:19.768Z,2.30
2018-03-16T16:08:47.395Z,1.30
2018-03-16T16:11:15.060Z,1.10
2018-03-16T16:13:42.718Z,1.50
2018-03-16T16:16:10.382Z,1.70
2018-03-16T16:18:37.988Z,1.27
2018-03-16T16:21:05.640Z,1.43
2018-03-16T16:23:33.271Z,1.80
2018-03-16T16:26:00.921Z,3.37
2018-03-16T16:28:28.524Z,9.20
2018-03-16T16:30:56.185Z,1.80
2018-03-16T16:33:23.796Z,1.47
2018-03-16T16:35:51.439Z,2.87
2018-03-16T16:38:19.068Z,1.20
2018-03-16T16:40:46.719Z,1.03
2018-03-16T16:43:14.338Z,1.57
2018-03-16T16:45:42.000Z,1.00
2018-03-16T16:48:09.626Z,1.07
2018-03-16T16:50:37.268Z,1.00
2018-03-16T16:53:04.888Z,2.00
2018-03-16T16:55:32.564Z,1.37
2018-03-16T16:58:00.179Z,1.10
2018-03-16T17:00:27.860Z,1.50
2018-03-16T17:02:55.480Z,1.33
2018-03-16T17:05:23.141Z,1.20
2018-03-16T17:07:50.765Z,1.57
2018-03-16T17:10:18.428Z,1.47
2018-03-16T17:12:46.049Z,1.80
2018-03-16T17:15:13.701Z,1.97
2018-03-16T17:17:41.309Z,1.10
2018-03-16T17:20:09.028Z,1.23
2018-03-16T17:22:36.697Z,1.17
2018-03-16T17:25:04.353Z,0.90
2018-03-16T17:27:31.959Z,1.00
2018-03-16T17:29:59.678Z,1.60
2018-03-16T17:32:27.289Z,1.70
2018-03-16T17:34:54.965Z,1.27
2018-03-16T17:37:22.568Z,2.30
2018-03-16T17:39:50.216Z,2.07
2018-03-16T17:42:17.837Z,2.50
2018-03-16T17:44:45.491Z,3.30
2018-03-16T17:47:13.140Z,3.40
2018-03-16T17:49:40.797Z,3.10
2018-03-16T17:52:08.449Z,2.90
2018-03-16T17:54:36.068Z,3.40
2018-03-16T17:57:03.761Z,4.30
2018-03-16T17:59:31.370Z,3.30
2018-03-16T18:01:59.030Z,2.90
2018-03-16T18:04:26.646Z,5.17
2018-03-16T18:06:54.299Z,4.70
2018-03-16T18:09:21.916Z,3.67
2018-03-16T18:11:49.619Z,3.70
2018-03-16T18:14:17.240Z,3.07
2018-03-16T18:16:44.976Z,2.30
2018-03-16T18:19:12.794Z,3.17
2018-03-16T18:21:40.649Z,4.30
2018-03-16T18:24:08.480Z,4.93
2018-03-16T18:26:36.188Z,7.73
2018-03-16T18:29:03.943Z,5.27
2018-03-16T18:31:31.714Z,7.10
2018-03-16T18:33:59.687Z,4.90
2018-03-16T18:36:27.437Z,2.97
2018-03-16T18:38:55.152Z,3.13
2018-03-16T18:41:22.968Z,3.67
2018-03-16T18:43:50.834Z,3.97
2018-03-16T18:46:18.778Z,4.20
2018-03-16T18:48:46.569Z,3.80
2018-03-16T18:51:14.437Z,2.87
2018-03-16T18:53:42.200Z,2.87
2018-03-16T18:56:10.132Z,3.80
2018-03-16T18:58:38.033Z,3.30
2018-03-16T19:01:05.903Z,3.87
2018-03-16T19:03:33.872Z,4.20
2018-03-16T19:06:01.583Z,3.90
2018-03-16T19:08:29.429Z,4.13
2018-03-16T19:10:57.268Z,4.13
2018-03-16T19:13:24.928Z,3.50
2018-03-16T19:15:52.585Z,4.13
2018-03-16T19:18:20.358Z,4.37
2018-03-16T19:20:48.176Z,3.67
2018-03-16T19:23:15.985Z,5.77
2018-03-16T19:25:43.958Z,5.53
2018-03-16T19:28:11.684Z,6.03
2018-03-16T19:30:39.624Z,10.57
2018-03-16T19:33:07.480Z,12.33
2018-03-16T19:35:35.319Z,11.50
2018-03-16T19:38:03.085Z,11.90
2018-03-16T19:40:30.847Z,13.70
2018-03-16T19:42:58.611Z,15.30
2018-03-16T19:45:26.377Z,12.50
2018-03-16T19:47:54.247Z,12.63
2018-03-16T19:50:22.038Z,13.20
2018-03-16T19:52:49.771Z,17.20
2018-03-16T19:55:17.637Z,15.20
2018-03-16T19:57:45.505Z,12.90
2018-03-16T20:00:13.371Z,12.70
2018-03-16T20:02:41.404Z,12.73
2018-03-16T20:05:09.310Z,9.80
2018-03-16T20:07:37.183Z,8.30
2018-03-16T20:10:04.839Z,8.60
2018-03-16T20:12:32.568Z,11.77
2018-03-16T20:15:00.261Z,10.97
2018-03-16T20:17:28.126Z,11.77
2018-03-16T20:19:55.850Z,13.40
2018-03-16T20:22:23.660Z,8.53
2018-03-16T20:24:51.424Z,8.23
2018-03-16T20:27:19.472Z,11.90
2018-03-16T20:29:47.208Z,13.33
2018-03-16T20:32:15.025Z,9.70
2018-03-16T20:34:42.790Z,10.03
2018-03-16T20:37:10.581Z,11.80
2018-03-16T20:39:38.269Z,9.57
2018-03-16T20:42:06.089Z,6.93
2018-03-16T20:44:33.804Z,9.47
2018-03-16T20:47:01.712Z,9.57
2018-03-16T20:49:29.479Z,10.10
2018-03-16T20:51:58.264Z,9.03
2018-03-16T20:54:26.029Z,9.83
2018-03-16T20:56:53.895Z,10.53
2018-03-16T20:59:21.660Z,9.17
2018-03-16T21:01:49.424Z,9.60
2018-03-16T21:04:17.133Z,9.57
2018-03-16T21:06:44.953Z,11.57
2018-03-16T21:09:12.762Z,10.77
2018-03-16T21:11:40.483Z,11.10
2018-03-16T21:14:08.139Z,11.40
2018-03-16T21:16:35.809Z,12.10
2018-03-16T21:19:03.531Z,10.00
2018-03-16T21:21:31.339Z,11.93
2018-03-16T21:23:59.097Z,11.13
2018-03-16T21:26:26.966Z,10.70
2018-03-16T21:28:54.833Z,10.40
2018-03-16T21:31:22.799Z,10.67
2018-03-16T21:33:50.534Z,10.57
2018-03-16T21:36:18.275Z,9.87
2018-03-16T21:38:46.098Z,10.87
2018-03-16T21:41:13.960Z,10.17
2018-03-16T21:43:41.668Z,10.97
2018-03-16T21:46:09.387Z,11.03
2018-03-16T21:48:37.149Z,9.73
2018-03-16T21:51:04.919Z,10.00
2018-03-16T21:53:32.683Z,9.70
2018-03-16T21:56:00.499Z,9.43
2018-03-16T21:58:28.309Z,9.00
2018-03-16T22:00:56.158Z,10.10
2018-03-16T22:03:23.945Z,9.83
2018-03-16T22:05:51.705Z,8.80
2018-03-16T22:08:19.469Z,8.87
2018-03-16T22:10:47.260Z,9.27
2018-03-16T22:13:15.101Z,9.70
2018-03-16T22:15:42.865Z,9.97
2018-03-16T22:18:10.730Z,9.40
2018-03-16T22:20:38.435Z,8.10
2018-03-16T22:23:06.132Z,8.83
2018-03-16T22:25:33.920Z,8.10
2018-03-16T22:28:01.688Z,8.90
2018-03-16T22:30:29.449Z,8.53
2018-03-16T22:32:57.212Z,10.20
2018-03-16T22:35:24.824Z,9.27
2018-03-16T22:37:52.473Z,9.17
2018-03-16T22:40:20.084Z,9.20
2018-03-16T22:42:47.790Z,9.60
2018-03-16T22:45:15.522Z,9.00
2018-03-16T22:47:43.345Z,9.80
2018-03-16T22:50:11.153Z,9.87
2018-03-16T22:52:39.026Z,9.30
2018-03-16T22:55:06.845Z,8.37
2018-03-16T22:57:34.548Z,8.83
2018-03-16T23:00:02.312Z,9.27
2018-03-16T23:02:30.078Z,10.17
2018-03-16T23:04:57.947Z,8.47
2018-03-16T23:07:25.613Z,9.07
2018-03-16T23:09:53.378Z,9.67
2018-03-16T23:12:21.038Z,8.77
2018-03-16T23:14:48.898Z,10.30
2018-03-16T23:17:16.674Z,10.00
2018-03-16T23:19:44.321Z,9.90
2018-03-16T23:22:12.088Z,9.10
2018-03-16T23:24:39.934Z,10.30
2018-03-16T23:27:07.671Z,9.70
2018-03-16T23:29:35.484Z,9.97
2018-03-16T23:32:03.200Z,8.83
2018-03-16T23:34:30.908Z,9.37
2018-03-16T23:36:58.846Z,10.77
2018-03-16T23:39:26.613Z,10.93
2018-03-16T23:41:54.407Z,11.43
2018-03-16T23:44:22.135Z,12.00
2018-03-16T23:46:49.999Z,10.57
2018-03-16T23:49:17.904Z,12.90
2018-03-16T23:51:45.673Z,12.40
2018-03-16T23:54:13.434Z,12.87
2018-03-16T23:56:41.314Z,12.70
2018-03-16T23:59:09.064Z,11.53
